createdAt,value
2018-05-23T00:02:09.619Z,93.98
2018-05-23T00:04:37.623Z,94.45
2018-05-23T00:07:05.650Z,94.17
2018-05-23T00:09:33.975Z,94.30
2018-05-23T00:12:02.034Z,94.44
2018-05-23T00:14:30.229Z,94.61
2018-05-23T00:16:58.257Z,94.33
2018-05-23T00:19:26.273Z,94.18
2018-05-23T00:21:54.975Z,94.16
2018-05-23T00:24:22.980Z,94.47
2018-05-23T00:26:51.023Z,95.27
2018-05-23T00:29:19.191Z,96.04
2018-05-23T00:31:47.227Z,95.89
2018-05-23T00:34:15.244Z,95.19
2018-05-23T00:36:43.271Z,94.73
2018-05-23T00:39:11.280Z,94.59
2018-05-23T00:41:39.612Z,94.58
2018-05-23T00:44:07.619Z,94.54
2018-05-23T00:46:35.703Z,94.58
2018-05-23T00:49:03.732Z,94.43
2018-05-23T00:51:31.756Z,94.60
2018-05-23T00:54:00.620Z,94.59
2018-05-23T00:56:28.634Z,94.56
2018-05-23T00:58:56.663Z,94.77
2018-05-23T01:01:24.824Z,94.69
2018-05-23T01:03:53.267Z,94.77
2018-05-23T01:06:21.452Z,95.20
2018-05-23T01:08:49.494Z,95.68
2018-05-23T01:11:17.499Z,96.12
2018-05-23T01:13:45.523Z,96.29
2018-05-23T01:16:13.640Z,95.50
2018-05-23T01:18:41.670Z,95.16
2018-05-23T01:21:09.670Z,95.05
2018-05-23T01:23:37.700Z,95.12
2018-05-23T01:26:06.468Z,94.81
2018-05-23T01:28:34.576Z,94.92
2018-05-23T01:31:02.591Z,95.05
2018-05-23T01:33:30.607Z,95.27
2018-05-23T01:35:58.615Z,95.33
2018-05-23T01:38:26.672Z,95.03
2018-05-23T01:40:54.783Z,95.14
2018-05-23T01:43:22.924Z,95.21
2018-05-23T01:45:51.888Z,95.43
2018-05-23T01:48:20.304Z,95.27
2018-05-23T01:50:48.327Z,94.96
2018-05-23T01:53:16.358Z,94.74
2018-05-23T01:55:44.517Z,94.88
2018-05-23T01:58:12.560Z,95.20
2018-05-23T02:00:40.847Z,95.01
2018-05-23T02:03:08.885Z,95.67
2018-05-23T02:05:36.896Z,97.04
2018-05-23T02:08:05.061Z,97.39
2018-05-23T02:10:33.070Z,98.05
2018-05-23T02:13:01.097Z,98.09
2018-05-23T02:15:29.162Z,97.97
2018-05-23T02:17:57.298Z,96.98
2018-05-23T02:20:25.302Z,95.92
2018-05-23T02:22:53.487Z,95.65
2018-05-23T02:25:21.501Z,95.24
2018-05-23T02:27:49.775Z,95.42
2018-05-23T02:30:17.784Z,95.46
2018-05-23T02:32:45.791Z,95.54
2018-05-23T02:35:14.555Z,95.49
2018-05-23T02:37:43.228Z,95.40
2018-05-23T02:40:11.416Z,95.45
2018-05-23T02:42:39.417Z,95.63
2018-05-23T02:45:07.556Z,95.23
2018-05-23T02:47:35.564Z,95.35
2018-05-23T02:50:03.685Z,95.33
2018-05-23T02:52:31.691Z,95.09
2018-05-23T02:54:59.895Z,95.11
2018-05-23T02:57:28.074Z,95.03
2018-05-23T02:59:56.091Z,94.93
2018-05-23T03:02:24.369Z,94.91
2018-05-23T03:04:52.674Z,94.91
2018-05-23T03:07:20.672Z,95.48
2018-05-23T03:09:48.711Z,95.71
2018-05-23T03:12:16.735Z,95.67
2018-05-23T03:14:44.756Z,95.89
2018-05-23T03:17:12.772Z,96.62
2018-05-23T03:19:40.795Z,96.47
2018-05-23T03:22:08.801Z,95.73
2018-05-23T03:24:36.827Z,95.77
2018-05-23T03:27:04.845Z,95.67
2018-05-23T03:29:32.863Z,95.68
2018-05-23T03:32:00.877Z,95.59
2018-05-23T03:34:28.915Z,95.48
2018-05-23T03:36:57.166Z,95.31
2018-05-23T03:39:25.184Z,95.46
2018-05-23T03:41:53.768Z,95.58
2018-05-23T03:44:22.352Z,95.63
2018-05-23T03:46:50.362Z,95.40
2018-05-23T03:49:18.395Z,94.98
2018-05-23T03:51:46.399Z,95.46
2018-05-23T03:54:14.981Z,95.73
2018-05-23T03:56:42.987Z,96.00
2018-05-23T03:59:11.011Z,96.24
2018-05-23T04:01:50.857Z,95.88
2018-05-23T04:04:30.919Z,95.56
2018-05-23T04:09:58.867Z,94.88
2018-05-23T04:12:26.874Z,95.06
2018-05-23T04:14:55.051Z,95.22
2018-05-23T04:17:23.062Z,94.92
2018-05-23T04:19:51.087Z,94.71
2018-05-23T04:22:19.768Z,95.00
2018-05-23T04:24:48.130Z,95.62
2018-05-23T04:27:17.096Z,95.52
2018-05-23T04:29:45.423Z,94.84
2018-05-23T04:32:13.643Z,94.77
2018-05-23T04:34:41.668Z,95.20
2018-05-23T04:37:09.680Z,95.36
2018-05-23T04:39:37.859Z,95.61
2018-05-23T04:42:05.950Z,96.24
2018-05-23T04:44:34.164Z,95.50
2018-05-23T04:47:02.195Z,95.09
2018-05-23T04:49:30.236Z,94.49
2018-05-23T04:51:58.231Z,94.71
2018-05-23T04:54:26.259Z,95.04
2018-05-23T04:56:54.282Z,95.07
2018-05-23T04:59:22.843Z,94.67
2018-05-23T05:01:51.107Z,94.40
2018-05-23T05:04:19.115Z,94.50
2018-05-23T05:06:47.309Z,94.79
2018-05-23T05:09:15.591Z,95.03
2018-05-23T05:11:43.651Z,94.80
2018-05-23T05:14:11.805Z,94.73
2018-05-23T05:16:39.884Z,94.65
2018-05-23T05:19:08.077Z,94.22
2018-05-23T05:21:36.093Z,94.17
2018-05-23T05:24:04.104Z,94.39
2018-05-23T05:26:32.284Z,94.09
2018-05-23T05:29:00.513Z,93.97
2018-05-23T05:31:28.743Z,94.00
2018-05-23T05:33:56.766Z,94.13
2018-05-23T05:36:24.808Z,93.86
2018-05-23T05:38:52.825Z,93.87
2018-05-23T05:41:20.868Z,93.44
2018-05-23T05:43:48.884Z,93.75
2018-05-23T05:46:16.910Z,93.57
2018-05-23T05:48:48.281Z,93.24
2018-05-23T05:51:16.301Z,92.77
2018-05-23T05:53:44.400Z,92.46
2018-05-23T05:56:12.366Z,92.24
2018-05-23T05:58:40.372Z,92.24
2018-05-23T06:01:08.564Z,91.57
2018-05-23T06:03:36.736Z,91.06
2018-05-23T06:06:04.777Z,91.22
2018-05-23T06:08:32.827Z,91.76
2018-05-23T06:11:00.847Z,92.40
2018-05-23T06:13:29.019Z,92.04
2018-05-23T06:15:57.044Z,90.81
2018-05-23T06:18:25.055Z,89.72
2018-05-23T06:20:53.335Z,89.72
2018-05-23T06:23:21.543Z,90.90
2018-05-23T06:25:49.571Z,91.90
2018-05-23T06:28:17.575Z,91.13
2018-05-23T06:30:45.724Z,90.42
2018-05-23T06:33:13.723Z,90.26
2018-05-23T06:35:41.751Z,90.82
2018-05-23T06:38:09.790Z,92.09
2018-05-23T06:40:37.808Z,92.55
2018-05-23T06:43:05.974Z,91.54
2018-05-23T06:45:33.988Z,90.78
2018-05-23T06:48:02.173Z,90.46
2018-05-23T06:50:31.078Z,89.94
2018-05-23T06:52:59.098Z,90.13
2018-05-23T06:55:27.172Z,90.43
2018-05-23T06:57:55.197Z,90.24
2018-05-23T07:00:23.334Z,90.45
2018-05-23T07:02:51.352Z,90.75
2018-05-23T07:05:19.766Z,90.74
2018-05-23T07:07:47.843Z,89.59
2018-05-23T07:10:15.873Z,89.67
2018-05-23T07:12:44.160Z,89.30
2018-05-23T07:15:12.162Z,89.06
2018-05-23T07:17:40.202Z,88.94
2018-05-23T07:20:09.051Z,88.80
2018-05-23T07:22:37.067Z,88.61
2018-05-23T07:25:05.093Z,89.06
2018-05-23T07:27:33.115Z,86.68
2018-05-23T07:30:01.376Z,85.06
2018-05-23T07:32:29.410Z,84.90
2018-05-23T07:34:57.421Z,85.86
2018-05-23T07:37:25.447Z,85.69
2018-05-23T07:39:53.451Z,84.88
2018-05-23T07:42:21.490Z,84.27
2018-05-23T07:44:49.508Z,85.57
2018-05-23T07:47:17.531Z,85.43
2018-05-23T07:49:45.540Z,84.85
2018-05-23T07:52:13.559Z,84.58
2018-05-23T07:54:41.684Z,83.07
2018-05-23T07:57:09.699Z,83.33
2018-05-23T07:59:37.819Z,85.05
2018-05-23T08:02:05.847Z,84.53
2018-05-23T08:04:33.961Z,84.22
2018-05-23T08:07:02.029Z,84.84
2018-05-23T08:09:30.311Z,84.44
2018-05-23T08:11:58.573Z,84.90
2018-05-23T08:14:26.864Z,84.35
2018-05-23T08:16:55.614Z,84.81
2018-05-23T08:19:23.640Z,82.85
2018-05-23T08:21:51.643Z,80.60
2018-05-23T08:24:19.888Z,82.48
2018-05-23T08:26:47.832Z,83.55
2018-05-23T08:29:16.268Z,81.32
2018-05-23T08:31:44.287Z,79.36
2018-05-23T08:34:12.305Z,78.28
2018-05-23T08:36:41.187Z,75.58
2018-05-23T08:39:09.459Z,75.57
2018-05-23T08:41:37.482Z,77.12
2018-05-23T08:44:05.500Z,72.74
2018-05-23T08:46:33.559Z,75.54
2018-05-23T08:49:01.812Z,78.35
2018-05-23T08:51:30.095Z,79.41
2018-05-23T08:53:58.119Z,79.69
2018-05-23T08:56:26.175Z,80.49
2018-05-23T08:58:54.219Z,79.40
2018-05-23T09:01:22.269Z,80.04
2018-05-23T09:03:50.532Z,81.35
2018-05-23T09:06:18.551Z,79.12
2018-05-23T09:08:48.967Z,77.99
2018-05-23T09:11:16.977Z,80.00
2018-05-23T09:13:45.082Z,79.04
2018-05-23T09:16:13.095Z,79.14
2018-05-23T09:18:41.323Z,79.43
2018-05-23T09:21:09.583Z,77.90
2018-05-23T09:23:37.616Z,77.22
2018-05-23T09:26:06.097Z,76.82
2018-05-23T09:28:34.124Z,76.21
2018-05-23T09:31:02.394Z,75.95
2018-05-23T09:33:30.873Z,76.42
2018-05-23T09:35:58.875Z,77.86
2018-05-23T09:38:26.967Z,77.42
2018-05-23T09:40:54.977Z,79.15
2018-05-23T09:43:23.003Z,78.76
2018-05-23T09:45:51.010Z,79.75
2018-05-23T09:48:19.112Z,77.74
2018-05-23T09:50:47.416Z,76.41
2018-05-23T09:53:15.661Z,77.09
2018-05-23T09:55:43.655Z,78.22
2018-05-23T09:58:11.648Z,78.91
2018-05-23T10:00:39.671Z,77.93
2018-05-23T10:03:07.678Z,76.79
2018-05-23T10:05:35.710Z,77.97
2018-05-23T10:08:03.962Z,74.71
2018-05-23T10:10:32.030Z,76.01
2018-05-23T10:13:00.500Z,77.59
2018-05-23T10:15:28.529Z,77.23
2018-05-23T10:17:56.536Z,78.08
2018-05-23T10:20:24.556Z,74.65
2018-05-23T10:22:53.216Z,71.38
2018-05-23T10:25:21.531Z,71.72
2018-05-23T10:27:49.569Z,70.01
2018-05-23T10:30:17.835Z,70.17
2018-05-23T10:32:46.827Z,71.13
2018-05-23T10:35:14.923Z,71.84
2018-05-23T10:37:42.924Z,72.57
2018-05-23T10:40:10.937Z,74.45
2018-05-23T10:42:38.920Z,75.29
2018-05-23T10:45:07.209Z,75.71
2018-05-23T10:47:35.196Z,77.05
2018-05-23T10:50:03.220Z,77.25
2018-05-23T10:52:31.215Z,78.07
2018-05-23T10:54:59.234Z,78.37
2018-05-23T10:57:27.240Z,78.44
2018-05-23T10:59:55.254Z,78.20
2018-05-23T11:02:23.251Z,79.22
2018-05-23T11:04:51.539Z,79.96
2018-05-23T11:07:19.591Z,79.23
2018-05-23T11:09:47.608Z,78.50
2018-05-23T11:12:15.623Z,78.85
2018-05-23T11:14:43.908Z,78.99
2018-05-23T11:17:12.101Z,77.82
2018-05-23T11:19:40.121Z,79.29
2018-05-23T11:22:08.123Z,80.02
2018-05-23T11:24:36.138Z,78.47
2018-05-23T11:27:04.132Z,79.83
2018-05-23T11:29:32.147Z,79.05
2018-05-23T11:32:00.152Z,78.50
2018-05-23T11:34:28.156Z,77.97
2018-05-23T11:36:56.263Z,77.94
2018-05-23T11:39:24.287Z,77.85
2018-05-23T11:41:52.303Z,76.25
2018-05-23T11:44:20.423Z,75.74
2018-05-23T11:46:48.441Z,75.52
2018-05-23T11:49:16.452Z,75.15
2018-05-23T11:51:44.449Z,75.51
2018-05-23T11:54:12.443Z,76.41
2018-05-23T11:56:40.468Z,77.46
2018-05-23T11:59:08.459Z,77.72
2018-05-23T12:01:36.474Z,77.59
2018-05-23T12:04:04.479Z,77.30
2018-05-23T12:06:32.500Z,76.02
2018-05-23T12:09:00.519Z,75.49
2018-05-23T12:11:28.506Z,75.44
2018-05-23T12:13:56.496Z,76.49
2018-05-23T12:16:24.531Z,76.36
2018-05-23T12:18:52.563Z,76.06
2018-05-23T12:21:20.583Z,77.55
2018-05-23T12:23:48.939Z,77.82
2018-05-23T12:26:17.024Z,78.08
2018-05-23T12:28:50.895Z,76.68
2018-05-23T12:31:18.937Z,76.84
2018-05-23T12:33:46.932Z,76.70
2018-05-23T12:36:14.947Z,77.65
2018-05-23T12:38:43.180Z,78.55
2018-05-23T12:41:14.292Z,79.30
2018-05-23T12:43:43.135Z,78.51
2018-05-23T12:46:11.416Z,79.49
2018-05-23T12:48:39.813Z,79.48
2018-05-23T12:51:08.173Z,81.98
2018-05-23T12:53:36.867Z,80.38
2018-05-23T12:56:04.886Z,81.93
2018-05-23T12:58:33.160Z,81.31
2018-05-23T13:01:01.183Z,81.33
2018-05-23T13:03:29.212Z,81.18
2018-05-23T13:05:57.220Z,80.34
2018-05-23T13:08:25.228Z,80.58
2018-05-23T13:10:53.459Z,81.81
2018-05-23T13:13:21.593Z,82.29
2018-05-23T13:15:49.923Z,81.43
2018-05-23T13:18:17.932Z,81.41
2018-05-23T13:20:45.972Z,81.47
2018-05-23T13:23:14.291Z,79.45
2018-05-23T13:25:42.556Z,79.84
2018-05-23T13:28:10.564Z,78.26
2018-05-23T13:30:38.598Z,79.23
2018-05-23T13:33:06.614Z,79.60
2018-05-23T13:35:34.634Z,79.75
2018-05-23T13:38:02.916Z,77.64
2018-05-23T13:40:31.198Z,77.29
2018-05-23T13:42:59.204Z,75.23
2018-05-23T13:45:27.532Z,76.34
2018-05-23T13:47:55.545Z,76.02
2018-05-23T13:50:23.545Z,74.97
2018-05-23T13:52:51.847Z,71.43
2018-05-23T13:55:19.847Z,71.33
2018-05-23T13:57:47.877Z,70.78
2018-05-23T14:00:15.880Z,72.37
2018-05-23T14:02:43.891Z,74.41
2018-05-23T14:05:11.892Z,75.17
2018-05-23T14:07:39.969Z,74.60
2018-05-23T14:10:08.540Z,74.32
2018-05-23T14:12:36.844Z,72.00
2018-05-23T14:15:04.860Z,71.41
2018-05-23T14:17:33.116Z,70.73
2018-05-23T14:20:01.130Z,69.95
2018-05-23T14:22:29.149Z,69.43
2018-05-23T14:24:57.834Z,69.67
2018-05-23T14:27:26.110Z,70.08
2018-05-23T14:29:54.115Z,70.34
2018-05-23T14:32:22.143Z,70.67
2018-05-23T14:34:51.039Z,69.52
2018-05-23T14:37:19.063Z,68.94
2018-05-23T14:39:47.071Z,68.51
2018-05-23T14:42:15.093Z,68.88
2018-05-23T14:44:43.100Z,67.79
2018-05-23T14:47:11.117Z,68.79
2018-05-23T14:49:39.135Z,68.71
2018-05-23T14:52:07.152Z,68.65
2018-05-23T14:54:35.151Z,67.64
2018-05-23T14:57:03.426Z,68.31
2018-05-23T14:59:32.287Z,67.16
2018-05-23T15:02:00.313Z,68.06
2018-05-23T15:04:28.335Z,67.68
2018-05-23T15:06:56.348Z,66.31
2018-05-23T15:09:24.348Z,66.81
2018-05-23T15:11:52.408Z,67.15
2018-05-23T15:14:20.449Z,67.32
2018-05-23T15:16:48.397Z,66.68
2018-05-23T15:19:16.451Z,67.15
2018-05-23T15:21:44.468Z,65.09
2018-05-23T15:24:12.693Z,65.10
2018-05-23T15:26:40.679Z,63.64
2018-05-23T15:29:08.712Z,64.50
2018-05-23T15:31:36.720Z,64.57
2018-05-23T15:34:04.913Z,63.95
2018-05-23T15:36:33.186Z,64.09
2018-05-23T15:39:01.355Z,63.59
2018-05-23T15:41:29.647Z,63.58
2018-05-23T15:43:57.680Z,63.26
2018-05-23T15:46:25.670Z,62.59
2018-05-23T15:48:54.176Z,62.93
2018-05-23T15:51:22.163Z,62.94
2018-05-23T15:53:50.303Z,63.72
2018-05-23T15:56:18.380Z,65.53
2018-05-23T15:58:50.044Z,64.61
2018-05-23T16:01:18.139Z,63.80
2018-05-23T16:03:46.151Z,64.44
2018-05-23T16:06:14.174Z,63.26
2018-05-23T16:08:42.378Z,63.87
2018-05-23T16:11:10.374Z,63.70
2018-05-23T16:13:38.423Z,62.86
2018-05-23T16:16:06.424Z,63.40
2018-05-23T16:18:34.475Z,63.33
2018-05-23T16:21:02.507Z,60.16
2018-05-23T16:23:30.541Z,60.07
2018-05-23T16:25:58.551Z,62.26
2018-05-23T16:28:26.691Z,66.11
2018-05-23T16:30:55.273Z,61.58
2018-05-23T16:33:23.820Z,58.50
2018-05-23T16:35:52.124Z,55.10
2018-05-23T16:38:20.160Z,52.27
2018-05-23T16:40:48.155Z,54.34
2018-05-23T16:43:16.172Z,52.09
2018-05-23T16:45:44.191Z,52.68
2018-05-23T16:48:12.280Z,53.10
2018-05-23T16:50:40.329Z,54.35
2018-05-23T16:53:08.612Z,54.33
2018-05-23T16:55:36.643Z,54.39
2018-05-23T16:58:04.963Z,55.00
2018-05-23T17:00:32.975Z,54.66
2018-05-23T17:03:00.988Z,54.76
2018-05-23T17:05:29.183Z,54.54
2018-05-23T17:07:57.165Z,54.80
2018-05-23T17:10:25.312Z,55.45
2018-05-23T17:12:53.319Z,55.21
2018-05-23T17:15:21.346Z,55.30
2018-05-23T17:17:49.516Z,56.08
2018-05-23T17:20:17.547Z,56.23
2018-05-23T17:22:45.565Z,56.24
2018-05-23T17:25:13.909Z,55.87
2018-05-23T17:27:41.945Z,56.00
2018-05-23T17:30:09.987Z,56.22
2018-05-23T17:32:37.991Z,56.32
2018-05-23T17:35:06.032Z,57.62
2018-05-23T17:37:34.059Z,57.61
2018-05-23T17:40:02.109Z,57.92
2018-05-23T17:42:30.113Z,56.77
2018-05-23T17:44:58.135Z,57.01
2018-05-23T17:47:26.153Z,58.15
2018-05-23T17:49:54.193Z,57.26
2018-05-23T17:52:22.164Z,57.34
2018-05-23T17:54:50.215Z,58.49
2018-05-23T17:57:18.221Z,58.46
2018-05-23T17:59:46.237Z,58.80
2018-05-23T18:02:14.247Z,58.49
2018-05-23T18:04:42.259Z,59.00
2018-05-23T18:07:10.843Z,59.64
2018-05-23T18:09:38.891Z,59.01
2018-05-23T18:12:06.940Z,59.21
2018-05-23T18:14:35.020Z,60.11
2018-05-23T18:17:02.942Z,59.88
2018-05-23T18:19:30.974Z,61.31
2018-05-23T18:21:59.585Z,61.44
2018-05-23T18:24:27.608Z,62.93
2018-05-23T18:26:55.637Z,64.40
2018-05-23T18:29:23.755Z,64.99
2018-05-23T18:31:51.668Z,66.80
2018-05-23T18:34:19.681Z,64.89
2018-05-23T18:36:47.689Z,63.91
2018-05-23T18:39:15.694Z,63.74
2018-05-23T18:41:43.700Z,63.10
2018-05-23T18:44:11.712Z,63.07
2018-05-23T18:46:39.741Z,62.84
2018-05-23T18:49:07.757Z,62.58
2018-05-23T18:51:35.792Z,63.38
2018-05-23T18:54:03.830Z,64.14
2018-05-23T18:56:31.863Z,64.17
2018-05-23T18:59:00.383Z,64.61
2018-05-23T19:01:28.407Z,65.20
2018-05-23T19:03:56.400Z,64.38
2018-05-23T19:06:24.481Z,64.21
2018-05-23T19:08:52.487Z,63.75
2018-05-23T19:11:20.528Z,64.41
2018-05-23T19:13:48.732Z,65.10
2018-05-23T19:16:16.700Z,65.07
2018-05-23T19:18:48.307Z,65.73
2018-05-23T19:21:16.364Z,65.69
2018-05-23T19:23:44.529Z,65.78
2018-05-23T19:26:12.560Z,66.68
2018-05-23T19:28:40.576Z,67.25
2018-05-23T19:31:09.512Z,67.26
2018-05-23T19:33:37.536Z,66.86
2018-05-23T19:36:05.571Z,67.12
2018-05-23T19:38:33.571Z,68.65
2018-05-23T19:41:01.598Z,69.77
2018-05-23T19:43:29.713Z,69.86
2018-05-23T19:45:57.707Z,69.95
2018-05-23T19:48:25.737Z,69.96
2018-05-23T19:50:53.739Z,71.00
2018-05-23T19:53:21.752Z,70.68
2018-05-23T19:55:49.971Z,70.92
2018-05-23T19:58:17.986Z,71.46
2018-05-23T20:00:45.983Z,71.99
2018-05-23T20:03:14.316Z,72.78
2018-05-23T20:05:42.343Z,73.10
2018-05-23T20:08:10.367Z,73.18
2018-05-23T20:10:38.376Z,73.44
2018-05-23T20:13:06.434Z,73.83
2018-05-23T20:15:34.447Z,73.99
2018-05-23T20:18:02.636Z,74.86
2018-05-23T20:20:30.644Z,75.50
2018-05-23T20:22:58.657Z,75.48
2018-05-23T20:25:26.679Z,75.23
2018-05-23T20:27:54.701Z,75.97
2018-05-23T20:30:22.694Z,76.15
2018-05-23T20:32:50.719Z,76.04
2018-05-23T20:35:18.782Z,77.01
2018-05-23T20:37:46.748Z,78.19
2018-05-23T20:40:14.883Z,78.38
2018-05-23T20:42:42.913Z,78.44
2018-05-23T20:45:10.921Z,78.62
2018-05-23T20:47:39.018Z,78.53
2018-05-23T20:50:06.950Z,78.70
2018-05-23T20:52:35.044Z,79.31
2018-05-23T20:55:03.027Z,79.24
2018-05-23T20:57:31.345Z,78.64
2018-05-23T20:59:59.344Z,78.74
2018-05-23T21:02:27.391Z,79.76
2018-05-23T21:04:55.413Z,80.33
2018-05-23T21:07:23.440Z,80.54
2018-05-23T21:09:51.437Z,80.95
2018-05-23T21:12:19.437Z,80.71
2018-05-23T21:14:47.480Z,80.88
2018-05-23T21:17:16.124Z,82.16
2018-05-23T21:19:44.451Z,82.52
2018-05-23T21:22:12.496Z,82.36
2018-05-23T21:24:40.488Z,82.31
2018-05-23T21:27:08.526Z,82.27
2018-05-23T21:29:36.540Z,81.65
2018-05-23T21:32:04.532Z,82.47
2018-05-23T21:34:32.679Z,82.08
2018-05-23T21:37:00.579Z,81.77
2018-05-23T21:39:28.606Z,82.13
2018-05-23T21:41:56.608Z,82.17
2018-05-23T21:44:24.719Z,82.45
2018-05-23T21:46:52.728Z,83.20
2018-05-23T21:49:20.751Z,83.16
2018-05-23T21:51:48.762Z,83.52
2018-05-23T21:54:16.803Z,83.39
2018-05-23T21:56:44.813Z,82.77
2018-05-23T21:59:12.856Z,83.16
2018-05-23T22:01:40.876Z,83.54
2018-05-23T22:04:08.920Z,83.93
2018-05-23T22:06:36.954Z,84.21
2018-05-23T22:09:05.888Z,84.37
2018-05-23T22:11:33.937Z,84.71
2018-05-23T22:14:02.091Z,85.13
2018-05-23T22:16:30.109Z,85.22
2018-05-23T22:18:58.137Z,85.29
2018-05-23T22:21:26.141Z,85.24
2018-05-23T22:23:54.176Z,85.73
2018-05-23T22:26:22.186Z,85.66
2018-05-23T22:28:50.380Z,85.92
2018-05-23T22:31:18.392Z,85.90
2018-05-23T22:33:46.415Z,86.23
2018-05-23T22:36:14.540Z,85.91
2018-05-23T22:38:42.568Z,86.48
2018-05-23T22:41:10.588Z,86.36
2018-05-23T22:43:39.211Z,86.67
2018-05-23T22:46:07.222Z,86.89
2018-05-23T22:48:35.281Z,86.67
2018-05-23T22:51:03.259Z,86.76
2018-05-23T22:53:31.291Z,87.65
2018-05-23T22:55:59.308Z,87.12
2018-05-23T22:58:27.386Z,87.15
2018-05-23T23:00:55.385Z,87.29
2018-05-23T23:03:23.415Z,88.36
2018-05-23T23:05:51.647Z,88.12
2018-05-23T23:08:19.680Z,88.12
2018-05-23T23:10:47.895Z,88.21
2018-05-23T23:13:15.939Z,87.59
2018-05-23T23:15:43.968Z,87.69
2018-05-23T23:18:11.978Z,87.55
2018-05-23T23:20:40.175Z,87.35
2018-05-23T23:23:08.799Z,87.07
2018-05-23T23:25:36.821Z,86.95
2018-05-23T23:28:04.851Z,86.78
2018-05-23T23:30:32.870Z,86.31
2018-05-23T23:33:00.886Z,86.28
2018-05-23T23:35:29.087Z,86.92
2018-05-23T23:37:57.572Z,86.93
2018-05-23T23:40:25.764Z,86.70
2018-05-23T23:42:53.773Z,86.10
2018-05-23T23:45:21.787Z,86.12
2018-05-23T23:47:49.799Z,85.61
2018-05-23T23:50:17.819Z,85.92
2018-05-23T23:52:45.895Z,86.10
2018-05-23T23:55:14.089Z,86.00
2018-05-23T23:57:42.391Z,86.34
